createdAt,value
2018-03-23T00:00:38.196Z,100979.87
2018-03-23T00:03:05.664Z,100986.88
2018-03-23T00:05:33.108Z,100989.69
2018-03-23T00:08:00.569Z,100987.30
2018-03-23T00:10:28.941Z,100983.43
2018-03-23T00:12:56.496Z,100980.76
2018-03-23T00:15:23.949Z,100977.88
2018-03-23T00:17:51.405Z,100972.34
2018-03-23T00:20:20.788Z,100976.98
2018-03-23T00:22:51.809Z,100982.65
2018-03-23T00:25:19.249Z,100980.72
2018-03-23T00:27:46.713Z,100983.84
2018-03-23T00:30:14.152Z,100979.62
2018-03-23T00:32:41.626Z,100979.52
2018-03-23T00:35:09.081Z,100981.06
2018-03-23T00:37:36.604Z,100982.07
2018-03-23T00:40:04.059Z,100982.09
2018-03-23T00:42:31.521Z,100985.76
2018-03-23T00:44:58.978Z,100993.94
2018-03-23T00:47:26.454Z,100991.10
2018-03-23T00:49:53.918Z,100992.02
2018-03-23T00:52:21.381Z,100993.64
2018-03-23T00:54:48.833Z,100985.97
2018-03-23T00:57:16.300Z,100992.23
2018-03-23T00:59:43.753Z,100993.86
2018-03-23T01:02:11.218Z,100991.19
2018-03-23T01:04:38.722Z,100986.00
2018-03-23T01:07:06.190Z,100994.48
2018-03-23T01:09:33.757Z,100979.66
2018-03-23T01:12:01.217Z,100986.77
2018-03-23T01:14:28.671Z,100995.98
2018-03-23T01:16:56.211Z,100983.06
2018-03-23T01:19:23.656Z,100983.34
2018-03-23T01:21:52.022Z,100980.66
2018-03-23T01:24:19.485Z,100989.22
2018-03-23T01:26:46.927Z,100984.34
2018-03-23T01:29:14.389Z,100981.61
2018-03-23T01:31:41.837Z,100969.51
2018-03-23T01:34:09.296Z,100973.78
2018-03-23T01:36:37.702Z,100977.11
2018-03-23T01:39:06.197Z,100973.75
2018-03-23T01:41:33.653Z,100967.67
2018-03-23T01:44:02.131Z,100964.34
2018-03-23T01:46:29.577Z,100959.61
2018-03-23T01:48:57.044Z,100963.83
2018-03-23T01:51:24.504Z,100967.26
2018-03-23T01:53:51.962Z,100962.70
2018-03-23T01:56:19.409Z,100965.00
2018-03-23T01:58:46.883Z,100960.38
2018-03-23T02:01:14.334Z,100957.08
2018-03-23T02:03:42.794Z,100950.44
2018-03-23T02:06:10.246Z,100944.83
2018-03-23T02:08:38.616Z,100945.80
2018-03-23T02:11:06.108Z,100949.22
2018-03-23T02:13:33.549Z,100947.08
2018-03-23T02:16:00.989Z,100950.19
2018-03-23T02:18:28.465Z,100949.27
2018-03-23T02:20:55.907Z,100944.92
2018-03-23T02:23:23.365Z,100943.88
2018-03-23T02:25:50.832Z,100941.75
2018-03-23T02:28:18.298Z,100935.99
2018-03-23T02:30:45.741Z,100939.19
2018-03-23T02:33:13.201Z,100947.97
2018-03-23T02:35:40.661Z,100942.00
2018-03-23T02:38:09.144Z,100945.55
2018-03-23T02:40:36.586Z,100944.58
2018-03-23T02:43:04.066Z,100942.80
2018-03-23T02:45:31.505Z,100932.19
2018-03-23T02:47:58.970Z,100939.63
2018-03-23T02:50:26.413Z,100937.05
2018-03-23T02:52:54.889Z,100929.98
2018-03-23T02:55:22.339Z,100929.55
2018-03-23T02:57:49.809Z,100928.98
2018-03-23T03:00:17.266Z,100924.27
2018-03-23T03:02:44.741Z,100919.02
2018-03-23T03:05:13.177Z,100919.48
2018-03-23T03:07:40.673Z,100919.19
2018-03-23T03:10:08.138Z,100916.89
2018-03-23T03:12:35.685Z,100912.38
2018-03-23T03:15:03.125Z,100910.64
2018-03-23T03:17:30.576Z,100910.17
2018-03-23T03:19:58.022Z,100906.27
2018-03-23T03:22:25.490Z,100902.98
2018-03-23T03:24:52.976Z,100898.13
2018-03-23T03:27:20.429Z,100909.41
2018-03-23T03:29:47.893Z,100904.94
2018-03-23T03:32:15.349Z,100897.72
2018-03-23T03:34:42.791Z,100905.98
2018-03-23T03:37:10.253Z,100906.19
2018-03-23T03:39:37.699Z,100908.67
2018-03-23T03:42:05.185Z,100907.79
2018-03-23T03:44:32.625Z,100906.75
2018-03-23T03:47:01.072Z,100908.33
2018-03-23T03:49:28.528Z,100910.16
2018-03-23T03:51:55.984Z,100907.85
2018-03-23T03:54:23.440Z,100906.30
2018-03-23T03:56:50.942Z,100900.00
2018-03-23T03:59:24.313Z,100896.52
2018-03-23T04:01:51.749Z,100906.67
2018-03-23T04:04:19.257Z,100899.81
2018-03-23T04:06:46.709Z,100902.41
2018-03-23T04:09:14.160Z,100898.55
2018-03-23T04:11:41.610Z,100900.84
2018-03-23T04:14:09.185Z,100896.01
2018-03-23T04:16:36.641Z,100895.00
2018-03-23T04:19:04.105Z,100891.54
2018-03-23T04:21:31.551Z,100892.58
2018-03-23T04:23:59.018Z,100901.14
2018-03-23T04:26:26.473Z,100900.50
2018-03-23T04:28:53.937Z,100903.14
2018-03-23T04:31:21.386Z,100899.80
2018-03-23T04:33:48.884Z,100899.59
2018-03-23T04:36:16.333Z,100899.96
2018-03-23T04:38:43.845Z,100894.80
2018-03-23T04:41:11.289Z,100890.69
2018-03-23T04:43:38.735Z,100888.48
2018-03-23T04:46:06.174Z,100886.55
2018-03-23T04:48:33.637Z,100881.93
2018-03-23T04:51:01.081Z,100877.56
2018-03-23T04:53:28.541Z,100873.06
2018-03-23T04:55:56.046Z,100869.73
2018-03-23T04:58:23.505Z,100869.45
2018-03-23T05:00:50.957Z,100867.30
2018-03-23T05:03:18.457Z,100862.98
2018-03-23T05:05:45.897Z,100862.79
2018-03-23T05:08:13.367Z,100863.02
2018-03-23T05:10:40.819Z,100859.45
2018-03-23T05:13:08.284Z,100864.34
2018-03-23T05:15:35.729Z,100857.66
2018-03-23T05:18:03.181Z,100853.22
2018-03-23T05:20:30.630Z,100850.36
2018-03-23T05:22:58.113Z,100855.33
2018-03-23T05:25:25.630Z,100845.70
2018-03-23T05:27:53.087Z,100849.12
2018-03-23T05:30:20.601Z,100853.75
2018-03-23T05:32:49.121Z,100847.73
2018-03-23T05:35:16.583Z,100844.96
2018-03-23T05:37:44.021Z,100855.31
2018-03-23T05:40:12.386Z,100856.86
2018-03-23T05:42:39.826Z,100857.03
2018-03-23T05:45:08.225Z,100858.38
2018-03-23T05:47:35.705Z,100856.14
2018-03-23T05:50:04.176Z,100855.22
2018-03-23T05:52:31.634Z,100852.16
2018-03-23T05:55:00.120Z,100854.27
2018-03-23T05:57:29.493Z,100858.08
2018-03-23T05:59:56.959Z,100857.48
2018-03-23T06:02:25.321Z,100865.61
2018-03-23T06:04:52.778Z,100861.32
2018-03-23T06:07:20.230Z,100857.28
2018-03-23T06:09:47.685Z,100861.23
2018-03-23T06:12:15.126Z,100857.00
2018-03-23T06:14:42.647Z,100858.71
2018-03-23T06:17:10.985Z,100861.87
2018-03-23T06:19:38.445Z,100859.33
2018-03-23T06:22:05.901Z,100856.66
2018-03-23T06:24:33.369Z,100861.45
2018-03-23T06:27:00.809Z,100865.59
2018-03-23T06:29:28.277Z,100869.58
2018-03-23T06:31:56.653Z,100866.47
2018-03-23T06:34:24.123Z,100869.05
2018-03-23T06:36:51.565Z,100874.77
2018-03-23T06:39:19.025Z,100872.14
2018-03-23T06:41:47.365Z,100872.73
2018-03-23T06:44:14.826Z,100867.72
2018-03-23T06:46:42.274Z,100870.72
2018-03-23T06:49:09.786Z,100867.30
2018-03-23T06:51:38.236Z,100862.40
2018-03-23T06:54:05.680Z,100868.80
2018-03-23T06:56:33.107Z,100868.89
2018-03-23T06:59:01.564Z,100867.55
2018-03-23T07:01:28.986Z,100865.70
2018-03-23T07:03:56.437Z,100865.23
2018-03-23T07:09:58.023Z,100859.27
2018-03-23T07:12:25.461Z,100862.64
2018-03-23T07:14:53.895Z,100864.19
2018-03-23T07:17:21.358Z,100860.81
2018-03-23T07:19:48.813Z,100857.06
2018-03-23T07:22:16.253Z,100861.76
2018-03-23T07:24:43.714Z,100859.69
2018-03-23T07:27:11.161Z,100855.33
2018-03-23T07:29:38.623Z,100862.87
2018-03-23T07:32:06.068Z,100856.58
2018-03-23T07:34:33.539Z,100855.28
2018-03-23T07:37:00.991Z,100851.95
2018-03-23T07:39:28.457Z,100847.63
2018-03-23T07:41:55.913Z,100850.04
2018-03-23T07:44:23.377Z,100842.83
2018-03-23T07:46:50.824Z,100851.99
2018-03-23T07:49:18.293Z,100846.77
2018-03-23T07:51:46.746Z,100840.02
2018-03-23T07:54:15.108Z,100843.61
2018-03-23T07:56:42.563Z,100847.52
2018-03-23T07:59:10.018Z,100846.31
2018-03-23T08:01:37.469Z,100842.30
2018-03-23T08:04:05.034Z,100847.31
2018-03-23T08:06:32.488Z,100840.11
2018-03-23T08:08:59.948Z,100846.20
2018-03-23T08:11:27.497Z,100841.30
2018-03-23T08:13:55.031Z,100841.61
2018-03-23T08:16:22.531Z,100841.50
2018-03-23T08:18:49.989Z,100835.19
2018-03-23T08:21:17.437Z,100832.51
2018-03-23T08:23:45.895Z,100834.56
2018-03-23T08:26:13.332Z,100833.86
2018-03-23T08:28:40.789Z,100830.55
2018-03-23T08:31:08.236Z,100828.36
2018-03-23T08:33:35.727Z,100826.34
2018-03-23T08:36:04.086Z,100821.98
2018-03-23T08:38:31.566Z,100822.38
2018-03-23T08:40:59.008Z,100819.98
2018-03-23T08:43:27.380Z,100826.94
2018-03-23T08:45:54.831Z,100816.33
2018-03-23T08:48:23.230Z,100826.98
2018-03-23T08:50:50.772Z,100830.61
2018-03-23T08:53:18.254Z,100827.04
2018-03-23T08:55:45.705Z,100829.23
2018-03-23T08:58:13.161Z,100829.64
2018-03-23T09:00:41.524Z,100834.22
2018-03-23T09:03:08.989Z,100832.38
2018-03-23T09:05:36.436Z,100825.94
2018-03-23T09:08:03.909Z,100832.54
2018-03-23T09:10:31.377Z,100821.15
2018-03-23T09:12:58.841Z,100819.02
2018-03-23T09:15:27.342Z,100816.16
2018-03-23T09:17:55.818Z,100818.12
2018-03-23T09:20:23.353Z,100817.16
2018-03-23T09:22:50.813Z,100815.23
2018-03-23T09:25:18.265Z,100819.78
2018-03-23T09:27:47.661Z,100828.48
2018-03-23T09:30:15.106Z,100810.37
2018-03-23T09:32:42.576Z,100818.52
2018-03-23T09:35:10.037Z,100822.16
2018-03-23T09:37:37.505Z,100812.28
2018-03-23T09:40:04.956Z,100814.00
2018-03-23T09:42:32.441Z,100807.77
2018-03-23T09:44:59.902Z,100803.48
2018-03-23T09:47:27.370Z,100798.56
2018-03-23T09:49:54.818Z,100798.27
2018-03-23T09:52:23.244Z,100796.91
2018-03-23T09:54:50.702Z,100794.18
2018-03-23T09:57:18.202Z,100788.88
2018-03-23T09:59:45.666Z,100788.41
2018-03-23T10:02:13.110Z,100797.21
2018-03-23T10:04:40.592Z,100790.44
2018-03-23T10:07:08.033Z,100787.42
2018-03-23T10:09:35.485Z,100784.00
2018-03-23T10:12:03.841Z,100787.16
2018-03-23T10:14:31.325Z,100784.00
2018-03-23T10:16:58.801Z,100781.24
2018-03-23T10:19:26.266Z,100781.95
2018-03-23T10:21:53.711Z,100784.26
2018-03-23T10:24:21.186Z,100775.67
2018-03-23T10:26:48.678Z,100778.80
2018-03-23T10:29:16.146Z,100778.64
2018-03-23T10:31:43.593Z,100771.83
2018-03-23T10:34:11.060Z,100772.80
2018-03-23T10:36:38.510Z,100769.66
2018-03-23T10:39:05.977Z,100762.94
2018-03-23T10:41:33.437Z,100763.36
2018-03-23T10:44:00.929Z,100755.62
2018-03-23T10:46:29.313Z,100752.16
2018-03-23T10:48:56.803Z,100752.34
2018-03-23T10:51:25.249Z,100752.69
2018-03-23T10:53:56.465Z,100742.56
2018-03-23T10:56:24.875Z,100744.86
2018-03-23T10:58:52.347Z,100746.91
2018-03-23T11:01:25.340Z,100741.30
2018-03-23T11:03:52.809Z,100742.65
2018-03-23T11:06:20.253Z,100753.20
2018-03-23T11:08:47.713Z,100744.45
2018-03-23T11:11:15.166Z,100745.40
2018-03-23T11:13:42.630Z,100743.38
2018-03-23T11:16:10.090Z,100737.77
2018-03-23T11:18:37.558Z,100735.75
2018-03-23T11:21:09.473Z,100737.63
2018-03-23T11:23:36.939Z,100735.52
2018-03-23T11:26:04.411Z,100727.80
2018-03-23T11:28:31.889Z,100727.73
2018-03-23T11:30:59.358Z,100730.94
2018-03-23T11:33:26.832Z,100731.42
2018-03-23T11:35:54.282Z,100733.25
2018-03-23T11:38:21.776Z,100722.20
2018-03-23T11:40:49.246Z,100720.36
2018-03-23T11:43:16.714Z,100718.43
2018-03-23T11:45:45.090Z,100712.95
2018-03-23T11:48:12.554Z,100713.70
2018-03-23T11:50:40.055Z,100711.20
2018-03-23T11:53:07.501Z,100708.47
2018-03-23T11:55:34.956Z,100697.33
2018-03-23T11:58:02.430Z,100708.71
2018-03-23T12:00:29.944Z,100707.38
2018-03-23T12:02:57.365Z,100701.77
2018-03-23T12:05:24.827Z,100692.30
2018-03-23T12:07:52.297Z,100675.63
2018-03-23T12:10:19.772Z,100678.77
2018-03-23T12:12:47.234Z,100679.31
2018-03-23T12:15:14.693Z,100676.55
2018-03-23T12:17:44.191Z,100673.07
2018-03-23T12:20:11.656Z,100670.23
2018-03-23T12:22:39.134Z,100660.03
2018-03-23T12:25:06.597Z,100652.75
2018-03-23T12:27:34.057Z,100660.77
2018-03-23T12:30:01.507Z,100654.34
2018-03-23T12:32:29.003Z,100657.41
2018-03-23T12:34:56.493Z,100651.42
2018-03-23T12:37:23.961Z,100647.66
2018-03-23T12:39:51.425Z,100649.75
2018-03-23T12:42:18.907Z,100638.78
2018-03-23T12:44:47.301Z,100638.34
2018-03-23T12:47:14.757Z,100637.96
2018-03-23T12:49:42.198Z,100634.61
2018-03-23T12:52:09.702Z,100628.97
2018-03-23T12:54:37.161Z,100622.73
2018-03-23T12:57:04.612Z,100622.22
2018-03-23T12:59:32.119Z,100621.56
2018-03-23T13:01:59.569Z,100622.87
2018-03-23T13:04:27.013Z,100620.91
2018-03-23T13:06:54.493Z,100620.06
2018-03-23T13:09:22.034Z,100616.47
2018-03-23T13:11:49.485Z,100620.37
2018-03-23T13:14:17.913Z,100626.89
2018-03-23T13:16:45.559Z,100613.77
2018-03-23T13:19:13.022Z,100613.16
2018-03-23T13:21:40.471Z,100612.38
2018-03-23T13:24:08.893Z,100616.80
2018-03-23T13:26:36.362Z,100607.97
2018-03-23T13:29:05.966Z,100602.34
2018-03-23T13:31:35.441Z,100596.73
2018-03-23T13:34:02.903Z,100599.09
2018-03-23T13:36:30.341Z,100589.08
2018-03-23T13:38:57.834Z,100597.58
2018-03-23T13:41:26.277Z,100586.91
2018-03-23T13:43:53.768Z,100584.18
2018-03-23T13:46:21.213Z,100587.27
2018-03-23T13:48:48.661Z,100583.36
2018-03-23T13:51:16.141Z,100589.73
2018-03-23T13:53:44.606Z,100573.45
2018-03-23T13:56:12.132Z,100571.34
2018-03-23T13:58:45.280Z,100568.79
2018-03-23T14:01:18.381Z,100554.75
2018-03-23T14:03:45.853Z,100552.02
2018-03-23T14:06:13.300Z,100547.00
2018-03-23T14:08:40.761Z,100561.08
2018-03-23T14:11:11.353Z,100568.59
2018-03-23T14:13:38.875Z,100564.78
2018-03-23T14:16:06.329Z,100565.24
2018-03-23T14:18:34.749Z,100559.96
2018-03-23T14:21:02.215Z,100563.53
2018-03-23T14:23:29.699Z,100556.69
2018-03-23T14:25:57.151Z,100557.61
2018-03-23T14:28:24.651Z,100560.27
2018-03-23T14:30:52.130Z,100561.20
2018-03-23T14:33:20.609Z,100560.95
2018-03-23T14:35:48.077Z,100558.03
2018-03-23T14:38:15.537Z,100562.05
2018-03-23T14:40:45.020Z,100557.67
2018-03-23T14:43:12.499Z,100560.00
2018-03-23T14:45:40.954Z,100561.95
2018-03-23T14:48:09.442Z,100558.81
2018-03-23T14:50:36.940Z,100555.09
2018-03-23T14:53:05.322Z,100551.39
2018-03-23T14:55:33.753Z,100554.03
2018-03-23T14:58:01.246Z,100554.92
2018-03-23T15:00:28.712Z,100550.23
2018-03-23T15:02:57.162Z,100542.44
2018-03-23T15:05:24.661Z,100536.47
2018-03-23T15:07:53.082Z,100536.56
2018-03-23T15:10:20.544Z,100539.47
2018-03-23T15:12:48.013Z,100535.61
2018-03-23T15:15:15.466Z,100527.00
2018-03-23T15:17:42.964Z,100527.23
2018-03-23T15:20:10.416Z,100534.38
2018-03-23T15:22:37.887Z,100535.37
2018-03-23T15:25:05.349Z,100531.41
2018-03-23T15:27:32.919Z,100526.98
2018-03-23T15:30:00.369Z,100527.22
2018-03-23T15:32:27.839Z,100524.30
2018-03-23T15:34:55.356Z,100519.86
2018-03-23T15:37:23.713Z,100519.96
2018-03-23T15:39:51.173Z,100507.12
2018-03-23T15:42:18.649Z,100507.65
2018-03-23T15:44:46.113Z,100510.86
2018-03-23T15:47:13.600Z,100512.61
2018-03-23T15:49:41.075Z,100509.14
2018-03-23T15:52:08.566Z,100512.36
2018-03-23T15:54:36.028Z,100514.86
2018-03-23T15:57:03.490Z,100504.16
2018-03-23T15:59:30.954Z,100501.67
2018-03-23T16:01:58.515Z,100507.12
2018-03-23T16:04:25.936Z,100512.98
2018-03-23T16:06:54.301Z,100504.52
2018-03-23T16:09:21.769Z,100498.58
2018-03-23T16:11:50.222Z,100507.16
2018-03-23T16:14:17.695Z,100498.13
2018-03-23T16:16:45.145Z,100500.88
2018-03-23T16:19:12.610Z,100496.83
2018-03-23T16:21:40.073Z,100495.94
2018-03-23T16:24:07.541Z,100494.64
2018-03-23T16:26:35.945Z,100490.63
2018-03-23T16:29:03.426Z,100493.97
2018-03-23T16:31:32.847Z,100492.43
2018-03-23T16:34:04.365Z,100489.80
2018-03-23T16:36:31.834Z,100495.22
2018-03-23T16:38:59.298Z,100500.73
2018-03-23T16:41:26.808Z,100496.71
2018-03-23T16:43:54.301Z,100496.94
2018-03-23T16:46:21.761Z,100489.88
2018-03-23T16:48:49.230Z,100501.37
2018-03-23T16:51:17.403Z,100501.02
2018-03-23T16:53:44.933Z,100501.92
2018-03-23T16:56:12.426Z,100498.84
2018-03-23T16:58:39.907Z,100500.53
2018-03-23T17:01:07.348Z,100500.30
2018-03-23T17:03:34.821Z,100500.73
2018-03-23T17:06:02.266Z,100498.42
2018-03-23T17:08:30.652Z,100503.48
2018-03-23T17:10:58.106Z,100513.55
2018-03-23T17:13:25.572Z,100502.27
2018-03-23T17:15:54.031Z,100503.75
2018-03-23T17:18:21.514Z,100506.61
2018-03-23T17:20:49.018Z,100504.16
2018-03-23T17:23:16.518Z,100501.14
2018-03-23T17:25:44.881Z,100502.24
2018-03-23T17:28:12.462Z,100503.28
2018-03-23T17:30:40.147Z,100503.00
2018-03-23T17:33:07.638Z,100509.62
2018-03-23T17:35:35.121Z,100512.39
2018-03-23T17:38:02.611Z,100509.92
2018-03-23T17:40:31.118Z,100505.56
2018-03-23T17:42:58.624Z,100503.16
2018-03-23T17:45:26.344Z,100511.25
2018-03-23T17:47:53.885Z,100512.25
2018-03-23T17:50:21.391Z,100515.10
2018-03-23T17:52:48.872Z,100507.78
2018-03-23T17:55:16.385Z,100508.38
2018-03-23T17:57:43.847Z,100508.73
2018-03-23T18:00:11.364Z,100510.88
2018-03-23T18:02:38.917Z,100508.52
2018-03-23T18:05:06.380Z,100510.75
2018-03-23T18:07:33.877Z,100502.84
2018-03-23T18:10:01.373Z,100499.48
2018-03-23T18:12:29.850Z,100502.78
2018-03-23T18:14:57.314Z,100504.84
2018-03-23T18:17:24.808Z,100505.37
2018-03-23T18:19:52.436Z,100505.85
2018-03-23T18:22:19.906Z,100505.63
2018-03-23T18:24:47.391Z,100503.23
2018-03-23T18:27:14.864Z,100505.02
2018-03-23T18:29:42.342Z,100506.61
2018-03-23T18:32:10.766Z,100502.38
2018-03-23T18:34:38.239Z,100501.36
2018-03-23T18:37:05.705Z,100511.23
2018-03-23T18:39:33.172Z,100508.79
2018-03-23T18:42:02.635Z,100506.52
2018-03-23T18:44:30.091Z,100505.56
2018-03-23T18:46:57.765Z,100498.98
2018-03-23T18:49:25.220Z,100500.05
2018-03-23T18:51:52.695Z,100497.66
2018-03-23T18:54:20.149Z,100494.48
2018-03-23T18:56:47.625Z,100498.45
2018-03-23T18:59:15.106Z,100496.32
2018-03-23T19:01:42.585Z,100488.52
2018-03-23T19:04:10.028Z,100495.02
2018-03-23T19:06:37.515Z,100499.33
2018-03-23T19:09:04.976Z,100503.94
2018-03-23T19:11:32.447Z,100503.47
2018-03-23T19:14:00.894Z,100507.02
2018-03-23T19:16:29.287Z,100508.77
2018-03-23T19:18:56.746Z,100500.77
2018-03-23T19:21:24.214Z,100505.19
2018-03-23T19:23:51.686Z,100501.22
2018-03-23T19:26:19.228Z,100503.38
2018-03-23T19:28:46.747Z,100504.84
2018-03-23T19:31:14.171Z,100504.07
2018-03-23T19:33:41.625Z,100509.54
2018-03-23T19:36:09.121Z,100506.38
2018-03-23T19:38:36.581Z,100508.48
2018-03-23T19:41:04.041Z,100515.81
2018-03-23T19:43:31.493Z,100505.59
2018-03-23T19:45:58.982Z,100505.37
2018-03-23T19:48:27.432Z,100500.80
2018-03-23T19:50:54.922Z,100507.83
2018-03-23T19:53:22.401Z,100500.02
2018-03-23T19:55:49.884Z,100505.70
2018-03-23T19:58:18.281Z,100502.11
2018-03-23T20:00:45.771Z,100500.64
2018-03-23T20:03:13.246Z,100497.16
2018-03-23T20:05:40.728Z,100501.22
2018-03-23T20:08:08.201Z,100502.80
2018-03-23T20:10:36.658Z,100501.64
2018-03-23T20:13:04.115Z,100499.16
2018-03-23T20:15:31.573Z,100492.55
2018-03-23T20:18:04.787Z,100497.53
2018-03-23T20:23:35.145Z,100492.48
2018-03-23T20:26:02.635Z,100486.72
2018-03-23T20:28:35.702Z,100491.66
2018-03-23T20:31:03.441Z,100480.69
2018-03-23T20:33:30.905Z,100489.62
2018-03-23T20:35:58.381Z,100483.50
2018-03-23T20:38:25.846Z,100489.39
2018-03-23T20:40:53.349Z,100483.44
2018-03-23T20:43:20.816Z,100485.56
2018-03-23T20:45:48.279Z,100490.09
2018-03-23T20:48:15.779Z,100487.55
2018-03-23T20:50:43.235Z,100487.02
2018-03-23T20:53:10.706Z,100488.84
2018-03-23T20:55:38.269Z,100490.73
2018-03-23T20:58:05.745Z,100484.13
2018-03-23T21:00:33.217Z,100486.02
2018-03-23T21:03:00.730Z,100490.56
2018-03-23T21:05:29.242Z,100488.17
2018-03-23T21:07:56.729Z,100486.84
2018-03-23T21:10:24.207Z,100490.45
2018-03-23T21:12:51.677Z,100488.86
2018-03-23T21:15:20.163Z,100490.42
2018-03-23T21:17:47.656Z,100494.73
2018-03-23T21:20:15.113Z,100494.77
2018-03-23T21:22:42.582Z,100494.00
2018-03-23T21:25:10.039Z,100493.19
2018-03-23T21:27:37.517Z,100497.08
2018-03-23T21:30:04.979Z,100493.53
2018-03-23T21:32:35.866Z,100497.13
2018-03-23T21:35:03.342Z,100496.18
2018-03-23T21:37:30.838Z,100493.75
2018-03-23T21:39:58.389Z,100492.74
2018-03-23T21:42:25.915Z,100494.59
2018-03-23T21:44:53.375Z,100495.76
2018-03-23T21:47:20.881Z,100491.55
2018-03-23T21:49:48.353Z,100490.88
2018-03-23T21:52:15.878Z,100488.06
2018-03-23T21:54:43.372Z,100488.24
2018-03-23T21:57:10.820Z,100491.03
2018-03-23T21:59:39.299Z,100496.03
2018-03-23T22:02:06.766Z,100495.67
2018-03-23T22:04:34.234Z,100495.78
2018-03-23T22:07:02.673Z,100492.89
2018-03-23T22:09:30.246Z,100491.90
2018-03-23T22:11:57.809Z,100490.48
2018-03-23T22:14:25.893Z,100485.17
2018-03-23T22:16:53.398Z,100483.12
2018-03-23T22:19:20.961Z,100476.36
2018-03-23T22:21:48.487Z,100480.13
2018-03-23T22:24:15.974Z,100491.82
2018-03-23T22:26:43.441Z,100478.52
2018-03-23T22:29:11.842Z,100473.88
2018-03-23T22:31:39.314Z,100473.58
2018-03-23T22:34:06.813Z,100476.77
2018-03-23T22:36:34.333Z,100474.05
2018-03-23T22:39:02.086Z,100491.44
2018-03-23T22:41:29.686Z,100479.60
2018-03-23T22:43:57.173Z,100477.31
2018-03-23T22:46:24.643Z,100472.11
2018-03-23T22:48:52.121Z,100477.67
2018-03-23T22:51:19.596Z,100475.34
2018-03-23T22:53:47.089Z,100480.00
2018-03-23T22:56:14.570Z,100470.58
2018-03-23T22:58:42.066Z,100477.55
2018-03-23T23:01:09.554Z,100476.52
2018-03-23T23:03:39.031Z,100476.41
2018-03-23T23:06:06.515Z,100474.28
2018-03-23T23:08:33.990Z,100476.93
2018-03-23T23:11:01.449Z,100470.03
2018-03-23T23:13:28.927Z,100475.73
2018-03-23T23:15:56.392Z,100467.09
2018-03-23T23:18:23.861Z,100465.45
2018-03-23T23:20:51.336Z,100468.04
2018-03-23T23:23:18.807Z,100463.41
2018-03-23T23:25:46.286Z,100464.86
2018-03-23T23:28:13.774Z,100463.75
2018-03-23T23:30:41.298Z,100467.45
2018-03-23T23:33:08.771Z,100459.09
2018-03-23T23:35:36.294Z,100460.30
2018-03-23T23:38:03.774Z,100458.50
2018-03-23T23:40:31.221Z,100457.36
2018-03-23T23:42:58.700Z,100456.19
2018-03-23T23:45:26.227Z,100458.30
2018-03-23T23:47:53.696Z,100461.44
2018-03-23T23:50:21.177Z,100455.17
2018-03-23T23:52:48.640Z,100456.17
2018-03-23T23:55:16.097Z,100460.17
2018-03-23T23:57:43.573Z,100462.03
